Edna T. Gattle — WDD2528 — position and weather

sailwx.info

Track history (hours):
 
Tides and Currents Weather Stations Pressure Air Temp Water Temp Dewpoint Dewpoint Depression Visibility Wind Speed Wind Dir Waves Ship Positions

Edna T. Gattle

Owner: Terral RiverService, Inc., Lake Providence, LA. More information available from US FCC via Universal Licensing System and Coast Guard Vessel Documentation Center.

Last reported at 2014-Nov-24 00:33 UTC. Time now 2014-Nov-24 01:13 UTC.
Position N 29°39' W 091°23'.

Length 33 m; draft 2.6 m.

Type: Towing. MMSI: 367116420.

Date/timePositionNaut miles runAvg speedWind from/ knotsBaromVisibWave heightAir tempDewpointWater temp
2014-Nov-24 00:33N 29°39' W 091°23'5 4.9
2014-Nov-23 23:32N 29°41' W 091°29'6 5.5
2014-Nov-23 22:29N 29°44' W 091°34'6 0.3
2014-Nov-23 01:18N 29°50' W 091°32'0 0.0
2014-Nov-22 23:19N 29°50' W 091°32'1 0.0
2014-Nov-21 13:11N 29°49' W 091°33'7 0.3
2014-Nov-20 14:33N 29°46' W 091°40'1 0.5
2014-Nov-20 12:14N 29°46' W 091°41'3 4.5
2014-Nov-20 11:32N 29°46' W 091°38'5 4.7
2014-Nov-20 10:33N 29°43' W 091°33'5 5.2
2014-Nov-20 09:33N 29°41' W 091°28'5 5.3
2014-Nov-20 08:33N 29°39' W 091°22'5 4.6
2014-Nov-20 07:34N 29°39' W 091°17'5 4.6
2014-Nov-20 06:33N 29°42' W 091°13'5 5.2
2014-Nov-20 05:33N 29°46' W 091°17'6 6.2
2014-Nov-20 04:33N 29°50' W 091°23'7 6.7
2014-Nov-20 03:32N 29°55' W 091°28'  
Track history (hours):
 
Tides and Currents Weather Stations Pressure Air Temp Water Temp Dewpoint Dewpoint Depression Visibility Wind Speed Wind Dir Waves Ship Positions

Edna T. Gattle

Owner: Terral RiverService, Inc., Lake Providence, LA. More information available from US FCC via Universal Licensing System and Coast Guard Vessel Documentation Center.

Last reported at 2014-Nov-24 00:33 UTC. Time now 2014-Nov-24 01:13 UTC.
Position N 29°39' W 091°23'.

Length 33 m; draft 2.6 m.

Type: Towing. MMSI: 367116420.

Date/timePositionNaut miles runAvg speedWind from/ knotsBaromVisibWave heightAir tempDewpointWater temp
2014-Nov-24 00:33N 29°39' W 091°23'5 4.9
2014-Nov-23 23:32N 29°41' W 091°29'6 5.5
2014-Nov-23 22:29N 29°44' W 091°34'6 0.3
2014-Nov-23 01:18N 29°50' W 091°32'0 0.0
2014-Nov-22 23:19N 29°50' W 091°32'1 0.0
2014-Nov-21 13:11N 29°49' W 091°33'7 0.3
2014-Nov-20 14:33N 29°46' W 091°40'1 0.5
2014-Nov-20 12:14N 29°46' W 091°41'3 4.5
2014-Nov-20 11:32N 29°46' W 091°38'5 4.7
2014-Nov-20 10:33N 29°43' W 091°33'5 5.2
2014-Nov-20 09:33N 29°41' W 091°28'5 5.3
2014-Nov-20 08:33N 29°39' W 091°22'5 4.6
2014-Nov-20 07:34N 29°39' W 091°17'5 4.6
2014-Nov-20 06:33N 29°42' W 091°13'5 5.2
2014-Nov-20 05:33N 29°46' W 091°17'6 6.2
2014-Nov-20 04:33N 29°50' W 091°23'7 6.7
2014-Nov-20 03:32N 29°55' W 091°28'  

Dump ship's entire track history